Time;durP1;ratioP1;P1;durP2;ratioP2;P2;SDS_P1;SDS_P2;PMS_P1;PMS_P2;Temp;Humidity;BMP_temperature;BMP_pressure;BME280_temperature;BME280_humidity;BME280_pressure;Samples;Min_cycle;Max_cycle;Signal;HPM_P1;HPM_P2
2023/09/10 00:01:04;;;;;;;;;16.00;15.50;;;;;29.04;38.31;101103.13;4956430;28;45421;-64
2023/09/10 00:03:32;;;;;;;;;20.25;15.75;;;;;28.97;38.44;101091.88;4957945;28;46586;-65
2023/09/10 00:05:59;;;;;;;;;18.50;17.25;;;;;28.89;38.03;101078.09;4954109;28;45488;-65
2023/09/10 00:08:25;;;;;;;;;16.00;15.25;;;;;28.97;38.41;101097.28;4957044;28;45701;-65
2023/09/10 00:10:51;;;;;;;;;18.50;16.75;;;;;28.94;38.53;101087.56;4955251;28;46176;-66
2023/09/10 00:13:17;;;;;;;;;14.75;13.25;;;;;28.90;38.49;101090.59;4959217;28;46613;-65
2023/09/10 00:15:43;;;;;;;;;16.25;12.00;;;;;28.80;38.53;101100.28;4962699;28;45589;-65
2023/09/10 00:18:09;;;;;;;;;16.50;15.00;;;;;28.70;39.04;101092.84;4955457;28;45900;-65
2023/09/10 00:20:39;;;;;;;;;16.00;14.00;;;;;28.63;38.86;101079.91;4958232;28;45501;-64
2023/09/10 00:23:05;;;;;;;;;18.00;15.25;;;;;28.66;38.69;101085.91;4958467;28;45605;-67
2023/09/10 00:25:30;;;;;;;;;18.00;14.75;;;;;28.74;38.82;101099.75;4951827;28;45439;-65
2023/09/10 00:27:57;;;;;;;;;18.75;14.25;;;;;28.67;38.72;101084.13;4957401;28;45258;-65
2023/09/10 00:30:23;;;;;;;;;18.00;16.50;;;;;28.63;39.14;101086.13;4956872;28;45480;-67
2023/09/10 00:32:48;;;;;;;;;14.25;14.00;;;;;28.70;39.23;101100.06;4958574;28;46696;-65
2023/09/10 00:35:14;;;;;;;;;17.50;17.50;;;;;28.61;39.11;101098.84;4967558;28;45665;-66
2023/09/10 00:37:40;;;;;;;;;19.50;14.25;;;;;28.51;39.55;101085.16;4951848;28;45345;-65
2023/09/10 00:40:07;;;;;;;;;17.25;16.25;;;;;28.58;39.40;101099.06;4956172;28;45382;-66
2023/09/10 00:42:33;;;;;;;;;18.75;17.00;;;;;28.57;39.45;101089.28;4961357;28;45434;-64
2023/09/10 00:44:59;;;;;;;;;17.00;13.50;;;;;28.62;39.22;101086.28;4953515;28;45916;-66
2023/09/10 00:47:26;;;;;;;;;17.25;16.25;;;;;28.63;39.40;101080.75;4952690;28;45437;-64
2023/09/10 00:49:53;;;;;;;;;20.75;15.50;;;;;28.67;39.31;101095.75;4956868;28;46110;-66
2023/09/10 00:52:21;;;;;;;;;19.50;18.00;;;;;28.63;39.08;101086.13;4953166;28;46270;-65
2023/09/10 00:54:49;;;;;;;;;20.25;14.50;;;;;28.57;39.32;101078.50;4951691;28;45676;-66
2023/09/10 00:57:15;;;;;;;;;17.25;17.25;;;;;28.56;39.64;101084.84;4957306;28;45752;-65
2023/09/10 00:59:42;;;;;;;;;19.25;17.25;;;;;28.49;39.81;101086.22;4955719;28;45545;-65
2023/09/10 01:02:09;;;;;;;;;13.75;13.75;;;;;28.46;39.95;101094.53;4957242;28;45680;-66
2023/09/10 01:04:34;;;;;;;;;14.50;14.50;;;;;28.43;39.86;101097.41;4967478;28;45651;-66
2023/09/10 01:07:01;;;;;;;;;16.00;14.25;;;;;28.42;40.08;101099.19;4975491;28;45568;-66
2023/09/10 01:09:27;;;;;;;;;15.00;13.00;;;;;28.40;40.03;101094.88;4975659;28;45465;-65
2023/09/10 01:12:17;;;;;;;;;16.75;15.25;;;;;28.37;39.96;101097.78;4974581;28;45548;-64
2023/09/10 01:14:57;;;;;;;;;14.75;11.25;;;;;28.38;40.20;101104.91;4973905;28;45352;-65
2023/09/10 01:17:36;;;;;;;;;17.50;15.00;;;;;28.29;40.19;101085.69;4962363;28;45718;-66
2023/09/10 01:20:21;;;;;;;;;19.00;18.00;;;;;28.36;40.19;101107.72;4989369;28;45464;-65
2023/09/10 01:23:02;;;;;;;;;17.00;13.00;;;;;28.31;40.15;101102.63;4958328;28;46137;-65
2023/09/10 01:25:29;;;;;;;;;15.00;14.50;;;;;28.28;39.93;101096.56;4960921;28;45414;-65
2023/09/10 01:27:54;;;;;;;;;20.50;14.75;;;;;28.19;40.62;101092.69;4968115;28;45519;-65
2023/09/10 01:30:20;;;;;;;;;15.00;12.50;;;;;28.26;40.24;101110.16;4968124;28;45413;-65
2023/09/10 01:32:52;;;;;;;;;16.50;13.25;;;;;28.21;40.22;101098.81;4970198;28;46001;-66
2023/09/10 01:35:32;;;;;;;;;20.25;15.00;;;;;28.25;40.38;101100.34;4963899;28;45754;-65
2023/09/10 01:38:37;;;;;;;;;17.00;12.50;;;;;28.16;40.41;101102.78;4971702;28;45500;-66
2023/09/10 01:41:07;;;;;;;;;17.00;13.75;;;;;27.99;40.56;101098.50;4951794;28;45346;-65
2023/09/10 01:43:34;;;;;;;;;16.00;14.00;;;;;28.06;40.62;101099.84;4965661;28;45583;-64
2023/09/10 01:49:19;;;;;;;;;13.25;12.00;;;;;27.99;40.91;101103.88;4973977;28;45585;-65
2023/09/10 01:51:45;;;;;;;;;15.75;14.00;;;;;28.02;40.71;101109.06;4963016;28;45346;-65
2023/09/10 01:54:10;;;;;;;;;13.25;12.75;;;;;28.03;40.63;101102.72;4956863;28;46232;-65
2023/09/10 01:56:36;;;;;;;;;19.00;15.75;;;;;27.98;40.48;101099.47;4962347;28;45562;-65
2023/09/10 01:59:01;;;;;;;;;15.75;14.00;;;;;28.01;40.52;101105.50;4957808;28;45707;-66
2023/09/10 02:01:27;;;;;;;;;12.25;11.50;;;;;28.02;40.47;101103.69;4961650;28;45363;-65
2023/09/10 02:03:52;;;;;;;;;15.75;12.75;;;;;28.00;40.56;101105.59;4962312;28;46202;-66
2023/09/10 02:06:18;;;;;;;;;15.50;15.00;;;;;27.95;40.49;101103.22;4959184;28;45500;-65
2023/09/10 02:08:43;;;;;;;;;17.75;14.00;;;;;27.94;41.08;101106.88;4965334;28;45536;-66
2023/09/10 02:11:09;;;;;;;;;14.25;12.50;;;;;27.85;40.67;101086.78;4960097;28;45373;-65
2023/09/10 02:13:35;;;;;;;;;14.25;12.75;;;;;28.01;40.54;101104.66;4964148;28;45497;-65
2023/09/10 02:16:00;;;;;;;;;15.50;12.75;;;;;27.97;40.52;101097.75;4958961;28;45624;-65
2023/09/10 02:18:28;;;;;;;;;14.75;11.50;;;;;27.82;40.95;101091.50;4964102;28;45520;-65
2023/09/10 02:20:54;;;;;;;;;17.50;15.50;;;;;27.72;41.00;101103.84;4961412;28;45450;-65
2023/09/10 02:23:20;;;;;;;;;14.75;13.75;;;;;27.65;41.52;101097.97;4966918;28;45426;-66
2023/09/10 02:25:46;;;;;;;;;14.75;11.75;;;;;27.56;41.27;101098.56;4974837;28;45491;-64
2023/09/10 02:28:15;;;;;;;;;16.00;14.50;;;;;27.46;41.62;101111.72;4973240;28;45456;-65
2023/09/10 02:30:41;;;;;;;;;14.50;13.75;;;;;27.32;41.92;101095.59;4991932;27;45370;-66
2023/09/10 02:33:09;;;;;;;;;12.00;11.50;;;;;27.35;41.94;101120.47;4976141;28;46106;-66
2023/09/10 02:35:34;;;;;;;;;14.50;12.25;;;;;27.31;41.87;101110.84;4976194;28;45459;-65
2023/09/10 02:38:00;;;;;;;;;14.25;13.50;;;;;27.33;42.15;101116.13;4977415;28;45383;-65
2023/09/10 02:40:25;;;;;;;;;15.25;12.00;;;;;27.35;41.98;101117.75;4976861;28;45556;-65
2023/09/10 02:42:51;;;;;;;;;16.25;11.50;;;;;27.32;42.21;101117.97;4970433;28;46330;-64
2023/09/10 02:45:16;;;;;;;;;12.25;11.50;;;;;27.30;42.14;101110.97;4974559;28;45401;-65
2023/09/10 02:47:42;;;;;;;;;11.25;10.75;;;;;27.35;41.80;101112.38;4977387;28;45423;-66
2023/09/10 02:50:09;;;;;;;;;15.00;13.75;;;;;27.36;41.78;101119.50;4976665;28;45526;-65
2023/09/10 02:52:36;;;;;;;;;13.75;10.25;;;;;27.39;42.06;101119.31;4975885;28;45583;-66
2023/09/10 02:55:02;;;;;;;;;14.75;13.00;;;;;27.37;42.10;101113.16;4968902;28;45490;-65
2023/09/10 02:57:27;;;;;;;;;12.75;12.75;;;;;27.39;42.22;101108.56;4969237;28;45322;-64
2023/09/10 02:59:53;;;;;;;;;12.25;12.00;;;;;27.44;42.22;101121.72;4956452;28;45508;-65
2023/09/10 03:02:18;;;;;;;;;16.25;15.50;;;;;27.44;42.18;101113.66;4956873;28;45437;-65
2023/09/10 03:04:44;;;;;;;;;19.00;15.50;;;;;27.34;42.09;101099.06;4957434;28;45552;-64
2023/09/10 03:07:09;;;;;;;;;17.25;13.00;;;;;27.33;42.11;101108.06;4956464;28;45404;-65
2023/09/10 03:09:35;;;;;;;;;16.75;12.25;;;;;27.30;42.23;101106.44;4956370;28;45486;-65
2023/09/10 03:12:38;;;;;;;;;15.25;12.25;;;;;27.21;42.44;101107.88;4971999;28;45554;-65
2023/09/10 03:15:05;;;;;;;;;15.50;13.50;;;;;27.17;42.30;101100.94;4928875;28;45521;-64
2023/09/10 03:17:31;;;;;;;;;13.00;13.00;;;;;27.07;42.69;101091.69;4915728;28;45447;-65
2023/09/10 03:19:56;;;;;;;;;12.75;12.75;;;;;27.12;42.32;101096.78;4935903;28;45793;-64
2023/09/10 03:22:22;;;;;;;;;12.75;11.00;;;;;27.12;42.57;101084.19;4957071;28;45448;-64
2023/09/10 03:24:48;;;;;;;;;13.75;12.75;;;;;27.20;42.70;101089.16;4955161;28;45802;-66
2023/09/10 03:27:13;;;;;;;;;17.25;14.50;;;;;27.18;42.63;101091.03;4956517;28;45565;-64
2023/09/10 03:29:41;;;;;;;;;15.00;12.75;;;;;27.11;42.73;101090.53;4956860;28;45635;-64
2023/09/10 03:32:07;;;;;;;;;22.33;16.67;;;;;27.08;43.12;101082.69;4956597;28;46203;-65
2023/09/10 03:34:33;;;;;;;;;15.33;15.00;;;;;26.98;43.44;101089.56;4957407;28;45310;-65
2023/09/10 03:36:59;;;;;;;;;18.50;14.50;;;;;26.81;43.50;101083.41;4955639;28;45469;-64
2023/09/10 03:39:24;;;;;;;;;15.75;14.25;;;;;26.74;43.85;101073.09;4956689;28;45279;-64
2023/09/10 03:41:52;;;;;;;;;14.33;14.00;;;;;26.82;43.93;101087.81;4956008;28;45446;-65
2023/09/10 03:44:18;;;;;;;;;17.25;13.50;;;;;26.76;43.61;101082.81;4956317;28;45492;-63
2023/09/10 03:46:48;;;;;;;;;17.75;13.75;;;;;26.75;43.72;101074.84;4956049;28;45438;-63
2023/09/10 03:49:13;;;;;;;;;16.00;16.00;;;;;26.83;43.79;101083.31;4970832;28;45525;-64
2023/09/10 03:51:41;;;;;;;;;20.67;18.00;;;;;26.77;44.12;101072.94;4955467;28;45564;-64
2023/09/10 03:54:11;;;;;;;;;18.67;15.00;;;;;26.80;44.29;101081.66;4955704;28;45414;-65
2023/09/10 03:56:44;;;;;;;;;15.33;14.67;;;;;26.65;44.15;101056.59;4970788;28;45255;-64
2023/09/10 03:59:10;;;;;;;;;17.00;16.33;;;;;26.81;43.97;101088.78;4955627;28;45417;-64
2023/09/10 04:01:40;;;;;;;;;18.50;15.25;;;;;26.70;44.06;101066.22;4956516;28;46811;-64
2023/09/10 04:04:06;;;;;;;;;19.33;15.67;;;;;26.81;44.17;101088.78;4954552;28;45546;-64
2023/09/10 04:06:32;;;;;;;;;16.75;14.00;;;;;26.73;44.51;101082.16;4972099;28;45401;-63
2023/09/10 04:08:57;;;;;;;;;14.75;12.75;;;;;26.65;43.94;101083.47;4957654;28;45323;-64
2023/09/10 04:11:23;;;;;;;;;17.33;14.33;;;;;26.71;44.09;101086.75;4956802;28;46012;-64
2023/09/10 04:13:49;;;;;;;;;17.33;16.67;;;;;26.71;44.00;101090.28;4957232;28;45385;-64
2023/09/10 04:16:14;;;;;;;;;17.33;16.67;;;;;26.67;44.01;101077.13;4970983;28;45471;-64
2023/09/10 04:18:40;;;;;;;;;13.25;12.50;;;;;26.69;44.25;101075.22;4956328;28;45377;-65
2023/09/10 04:21:06;;;;;;;;;13.50;13.25;;;;;26.68;43.99;101076.19;4954376;28;47622;-65
2023/09/10 04:23:31;;;;;;;;;14.00;14.00;;;;;26.69;43.75;101062.63;4955933;28;45351;-65
2023/09/10 04:25:57;;;;;;;;;19.33;14.67;;;;;26.76;44.04;101081.94;4956631;28;45485;-65
2023/09/10 04:28:23;;;;;;;;;15.33;15.33;;;;;26.74;44.23;101081.16;4957510;28;45224;-65
2023/09/10 04:30:49;;;;;;;;;12.67;12.00;;;;;26.70;43.78;101080.50;4970561;28;45407;-65
2023/09/10 04:33:16;;;;;;;;;19.67;16.33;;;;;26.60;44.10;101082.88;4955002;28;45303;-65
2023/09/10 04:35:50;;;;;;;;;17.00;16.00;;;;;26.54;44.30;101077.88;4970336;28;45426;-65
2023/09/10 04:38:16;;;;;;;;;14.67;13.67;;;;;26.48;44.29;101086.28;4955640;28;45567;-65
2023/09/10 04:40:41;;;;;;;;;12.00;12.00;;;;;26.47;44.29;101091.72;4955048;28;45542;-65
2023/09/10 04:43:07;;;;;;;;;15.67;13.00;;;;;26.25;44.80;101057.22;4953955;28;45392;-65
2023/09/10 04:45:33;;;;;;;;;17.33;16.67;;;;;26.29;44.83;101080.22;4955575;28;45793;-64
2023/09/10 04:47:59;;;;;;;;;19.67;14.33;;;;;26.22;45.19;101069.88;4955781;28;45429;-63
2023/09/10 04:50:25;;;;;;;;;17.00;14.00;;;;;26.26;44.93;101075.91;4955114;28;45489;-65
2023/09/10 04:52:52;;;;;;;;;14.00;13.67;;;;;26.27;44.56;101080.34;4955535;28;45400;-63
2023/09/10 04:55:17;;;;;;;;;15.67;13.00;;;;;26.29;45.11;101074.84;4954955;28;45457;-65
2023/09/10 04:57:43;;;;;;;;;19.00;15.00;;;;;26.27;44.73;101090.19;4955352;28;45385;-65
2023/09/10 05:00:09;;;;;;;;;16.67;15.33;;;;;26.18;44.90;101072.81;4953408;28;47662;-65
2023/09/10 05:02:38;;;;;;;;;15.33;14.33;;;;;26.27;44.94;101084.81;4954909;28;45606;-65
2023/09/10 05:05:04;;;;;;;;;16.00;16.00;;;;;26.18;45.42;101083.56;4954812;28;45549;-65
2023/09/10 05:07:30;;;;;;;;;20.00;17.33;;;;;26.08;44.84;101085.00;4954973;28;45499;-65
2023/09/10 05:09:59;;;;;;;;;17.67;16.67;;;;;25.98;45.29;101071.25;4955001;28;46114;-65
2023/09/10 05:12:25;;;;;;;;;13.33;12.33;;;;;26.06;45.36;101093.19;4954367;28;45512;-64
2023/09/10 05:14:51;;;;;;;;;16.00;16.00;;;;;25.93;45.32;101078.72;4955268;28;45437;-64
2023/09/10 05:17:16;;;;;;;;;16.67;16.67;;;;;26.01;45.10;101100.63;4953553;28;45475;-64
2023/09/10 05:19:43;;;;;;;;;17.00;15.00;;;;;25.39;45.04;101003.94;4954769;28;45432;-64
2023/09/10 05:22:08;;;;;;;;;17.00;15.67;;;;;25.86;45.22;101091.59;4954894;28;45321;-64
2023/09/10 05:24:34;;;;;;;;;15.33;15.33;;;;;25.86;45.53;101088.03;4953254;28;45982;-64
2023/09/10 05:26:59;;;;;;;;;16.67;16.33;;;;;25.84;45.17;101095.31;4954780;28;45585;-64
2023/09/10 05:29:26;;;;;;;;;15.33;14.00;;;;;25.79;45.53;101092.88;4955033;28;46187;-63
2023/09/10 05:31:52;;;;;;;;;16.67;14.67;;;;;25.80;45.42;101092.78;4955179;28;45497;-64
2023/09/10 05:34:20;;;;;;;;;13.67;13.67;;;;;25.69;45.33;101072.88;4954794;28;45287;-64
2023/09/10 05:36:48;;;;;;;;;18.33;14.00;;;;;25.70;45.56;101071.91;4953388;28;45248;-65
2023/09/10 05:39:14;;;;;;;;;19.67;15.33;;;;;25.84;45.33;101097.97;4954872;28;45941;-65
2023/09/10 05:41:39;;;;;;;;;18.67;15.67;;;;;25.86;45.27;101091.59;4969250;28;45460;-64
2023/09/10 05:44:05;;;;;;;;;15.67;15.33;;;;;25.85;45.46;101089.00;4954535;28;45375;-65
2023/09/10 05:46:31;;;;;;;;;13.00;11.33;;;;;25.96;45.21;101095.53;4954759;28;45425;-63
2023/09/10 05:48:56;;;;;;;;;22.33;15.00;;;;;25.86;45.02;101088.94;4971088;28;45460;-64
2023/09/10 05:51:22;;;;;;;;;18.00;15.00;;;;;25.83;45.30;101094.44;4957817;28;45497;-64
2023/09/10 05:53:47;;;;;;;;;18.33;16.00;;;;;25.90;45.13;101098.53;4957285;28;45454;-64
2023/09/10 05:56:20;;;;;;;;;17.00;14.67;;;;;25.88;45.06;101103.13;4957633;28;45458;-64
2023/09/10 05:58:46;;;;;;;;;14.67;14.67;;;;;25.80;45.15;101090.13;4958034;28;45470;-64
2023/09/10 06:01:12;;;;;;;;;17.00;13.67;;;;;25.87;45.57;101109.47;4955498;28;45331;-63
2023/09/10 06:03:38;;;;;;;;;17.67;16.67;;;;;25.97;45.10;101107.13;4957257;28;45375;-64
2023/09/10 06:06:04;;;;;;;;;18.00;15.33;;;;;25.83;45.53;101088.22;4957598;28;45345;-64
2023/09/10 06:08:35;;;;;;;;;20.00;16.33;;;;;25.91;45.48;101116.38;4957003;28;45567;-66
2023/09/10 06:11:01;;;;;;;;;17.67;14.00;;;;;25.91;45.04;101107.44;4956780;28;45415;-65
2023/09/10 06:13:28;;;;;;;;;17.33;16.67;;;;;25.81;45.11;101097.19;4958782;28;45468;-66
2023/09/10 06:18:53;;;;;;;;;15.33;13.67;;;;;25.78;45.34;101097.38;4969069;28;46694;-64
2023/09/10 06:21:19;;;;;;;;;16.33;14.33;;;;;25.42;45.46;101043.13;4958518;28;45429;-64
2023/09/10 06:23:55;;;;;;;;;13.67;12.33;;;;;25.91;45.68;101108.34;4955600;28;45444;-64
2023/09/10 06:26:21;;;;;;;;;18.00;15.67;;;;;25.99;45.79;101095.34;4957163;28;45451;-63
2023/09/10 06:28:53;;;;;;;;;15.33;13.67;;;;;26.20;45.26;101109.34;4956733;28;45871;-64
2023/09/10 06:31:18;;;;;;;;;14.33;14.33;;;;;26.19;45.31;101093.31;4956858;28;46073;-64
2023/09/10 06:33:44;;;;;;;;;17.00;16.00;;;;;26.38;44.67;101107.41;4956969;28;45553;-64
2023/09/10 06:36:10;;;;;;;;;17.33;15.00;;;;;26.41;44.50;101101.88;4957210;28;45626;-65
2023/09/10 06:38:35;;;;;;;;;15.75;15.75;;;;;26.45;44.30;101108.78;4957710;28;45478;-66
2023/09/10 06:41:07;;;;;;;;;13.67;12.33;;;;;26.51;44.43;101099.50;4957886;28;46338;-64
2023/09/10 06:43:37;;;;;;;;;19.33;16.67;;;;;26.59;43.86;101101.78;4971915;28;45485;-65
2023/09/10 06:46:03;;;;;;;;;18.00;17.33;;;;;26.69;43.97;101115.50;4957252;28;45445;-65
2023/09/10 06:48:28;;;;;;;;;19.67;16.00;;;;;26.80;43.69;101118.44;4956469;28;46329;-64
2023/09/10 06:50:54;;;;;;;;;20.33;17.67;;;;;26.86;43.44;101113.56;4956385;28;45306;-64
2023/09/10 06:53:34;;;;;;;;;15.67;15.33;;;;;26.68;43.31;101090.47;4956228;28;45456;-64
2023/09/10 06:56:09;;;;;;;;;19.25;15.25;;;;;26.98;43.33;101116.44;4957139;28;45466;-64
2023/09/10 06:58:34;;;;;;;;;20.67;17.33;;;;;26.96;42.99;101105.81;4956042;28;45393;-63
2023/09/10 07:01:04;;;;;;;;;18.00;14.67;;;;;26.90;43.21;101111.53;4955203;28;45483;-63
2023/09/10 07:03:34;;;;;;;;;20.33;18.33;;;;;26.95;42.97;101120.19;4956391;28;45477;-64
2023/09/10 07:06:06;;;;;;;;;16.00;16.00;;;;;26.82;43.19;101092.34;4956826;28;45446;-64
2023/09/10 07:08:34;;;;;;;;;21.67;17.67;;;;;27.16;42.91;101115.31;4956457;28;45705;-64
2023/09/10 07:11:00;;;;;;;;;22.33;15.33;;;;;27.22;42.80;101114.13;4971254;28;45482;-65
2023/09/10 07:13:30;;;;;;;;;19.00;18.00;;;;;27.08;42.39;101105.03;4954877;28;45539;-64
2023/09/10 07:15:56;;;;;;;;;17.00;16.00;;;;;27.17;42.67;101126.94;4956540;28;45582;-63
2023/09/10 07:18:22;;;;;;;;;21.00;18.67;;;;;27.05;42.72;101116.00;4972749;28;47876;-64
2023/09/10 07:20:54;;;;;;;;;23.33;18.33;;;;;27.28;42.64;101135.25;4957787;28;45314;-64
2023/09/10 07:23:20;;;;;;;;;20.33;17.67;;;;;27.25;42.59;101098.66;4956418;28;45676;-66
2023/09/10 07:25:46;;;;;;;;;21.33;19.00;;;;;27.30;42.22;101090.31;4957908;28;45425;-64
2023/09/10 07:28:12;;;;;;;;;23.67;18.67;;;;;27.41;42.40;101121.91;4956908;28;45723;-65
2023/09/10 07:30:38;;;;;;;;;17.67;17.67;;;;;27.47;42.31;101117.00;4956181;28;45446;-65
2023/09/10 07:33:04;;;;;;;;;20.67;19.00;;;;;27.55;42.35;101124.59;4955945;28;45562;-65
2023/09/10 07:35:29;;;;;;;;;21.67;17.00;;;;;27.73;41.81;101136.00;4956612;28;45438;-65
2023/09/10 07:37:55;;;;;;;;;20.00;16.50;;;;;27.84;41.39;101136.22;4956378;28;45657;-65
2023/09/10 07:40:21;;;;;;;;;16.50;15.50;;;;;27.93;41.08;101140.16;4956235;28;45269;-64
2023/09/10 07:42:47;;;;;;;;;19.67;16.67;;;;;27.96;41.43;101131.88;4955808;28;45610;-66
2023/09/10 07:45:14;;;;;;;;;19.33;19.33;;;;;28.07;41.06;101132.06;4955853;28;45360;-65
2023/09/10 07:47:43;;;;;;;;;19.00;14.75;;;;;28.11;40.98;101128.16;4955447;28;46362;-64
2023/09/10 07:50:09;;;;;;;;;15.50;14.75;;;;;28.24;40.89;101147.09;4956557;28;45464;-65
2023/09/10 07:52:35;;;;;;;;;19.00;17.00;;;;;27.82;40.75;101089.66;4957433;28;45449;-64
2023/09/10 07:55:01;;;;;;;;;18.00;16.25;;;;;28.08;40.57;101123.00;4955886;28;45548;-67
2023/09/10 07:57:30;;;;;;;;;21.75;15.50;;;;;27.99;40.51;101085.03;4955288;28;47547;-65
2023/09/10 07:59:55;;;;;;;;;17.75;15.25;;;;;28.34;40.43;101136.56;4954953;28;45433;-66
2023/09/10 08:02:26;;;;;;;;;18.00;15.75;;;;;28.18;40.42;101095.47;4968867;28;45407;-65
2023/09/10 08:04:54;;;;;;;;;15.50;14.50;;;;;28.18;39.54;101100.84;4956063;28;45293;-66
2023/09/10 08:07:19;;;;;;;;;14.75;14.75;;;;;28.35;39.67;101135.59;4955517;28;45598;-66
2023/09/10 08:09:45;;;;;;;;;20.25;17.25;;;;;28.34;39.58;101113.19;4956612;28;45405;-66
2023/09/10 08:12:11;;;;;;;;;17.25;14.00;;;;;28.45;39.69;101138.53;4956258;28;45475;-66
2023/09/10 08:14:38;;;;;;;;;15.75;15.25;;;;;28.28;39.52;101118.13;4955672;28;45466;-66
2023/09/10 08:17:04;;;;;;;;;16.50;16.25;;;;;28.38;40.05;101142.59;4955923;28;45522;-66
2023/09/10 08:19:33;;;;;;;;;16.25;14.50;;;;;28.33;39.47;101134.84;4955871;28;45504;-66
2023/09/10 08:21:59;;;;;;;;;13.00;12.25;;;;;28.23;39.98;101115.72;4955978;28;45359;-66
2023/09/10 08:24:24;;;;;;;;;16.75;15.25;;;;;28.34;39.64;101142.81;4955832;28;45242;-65
2023/09/10 08:26:51;;;;;;;;;16.50;16.00;;;;;28.32;39.82;101125.91;4955993;28;45600;-67
2023/09/10 08:29:17;;;;;;;;;13.00;12.25;;;;;28.49;39.96;101129.31;4955783;28;45367;-66
2023/09/10 08:31:43;;;;;;;;;12.50;12.50;;;;;28.61;39.65;101135.72;4955679;28;45890;-66
2023/09/10 08:34:09;;;;;;;;;15.25;13.50;;;;;28.68;39.41;101135.19;4956604;28;45518;-65
2023/09/10 08:36:35;;;;;;;;;14.75;13.75;;;;;28.64;39.82;101122.91;4956382;28;45488;-65
2023/09/10 08:39:00;;;;;;;;;18.25;13.75;;;;;28.44;39.41;101089.19;4955911;28;45505;-66
2023/09/10 08:41:37;;;;;;;;;17.75;15.75;;;;;28.66;39.23;101126.34;4956147;28;45390;-66
2023/09/10 08:44:08;;;;;;;;;15.75;15.75;;;;;28.63;39.09;101121.16;4971199;28;45540;-66
2023/09/10 08:46:36;;;;;;;;;18.50;15.50;;;;;28.72;39.71;101125.94;4955720;28;45512;-67
2023/09/10 08:49:02;;;;;;;;;19.50;15.50;;;;;28.88;39.27;101117.69;4955983;28;45493;-67
2023/09/10 08:51:34;;;;;;;;;18.25;14.75;;;;;29.03;39.30;101102.25;4954658;28;45319;-66
2023/09/10 08:54:01;;;;;;;;;20.25;16.25;;;;;29.16;38.21;101122.03;4956448;28;45331;-66
2023/09/10 08:56:27;;;;;;;;;14.00;13.00;;;;;29.13;38.97;101110.59;4955883;28;45454;-66
2023/09/10 08:58:55;;;;;;;;;13.50;13.50;;;;;29.31;38.48;101117.41;4955998;28;45433;-67
2023/09/10 09:01:27;;;;;;;;;14.75;13.00;;;;;29.26;38.23;101103.38;4956675;28;45520;-66
2023/09/10 09:03:54;;;;;;;;;20.00;15.00;;;;;29.08;37.88;101050.72;4956502;28;45255;-66
2023/09/10 09:06:21;;;;;;;;;16.75;14.75;;;;;29.58;37.62;101121.78;4956020;28;46591;-66
2023/09/10 09:08:51;;;;;;;;;15.25;15.25;;;;;29.55;36.87;101114.78;4955251;28;45574;-67
2023/09/10 09:11:17;;;;;;;;;20.25;17.75;;;;;29.50;36.71;101103.44;4956897;28;45635;-66
2023/09/10 09:13:49;;;;;;;;;18.00;13.50;;;;;29.54;37.48;101091.47;4957537;28;45485;-66
2023/09/10 09:16:15;;;;;;;;;16.00;15.50;;;;;29.45;37.17;101070.56;4955346;28;45633;-66
2023/09/10 09:18:43;;;;;;;;;15.25;14.00;;;;;29.75;37.00;101101.69;4956259;28;45428;-65
2023/09/10 09:21:15;;;;;;;;;14.50;12.00;;;;;29.87;37.37;101100.78;4957609;28;45429;-66
2023/09/10 09:24:05;;;;;;;;;16.25;16.25;;;;;30.07;37.15;101102.03;4957472;28;45335;-66
2023/09/10 09:26:32;;;;;;;;;17.75;16.75;;;;;30.02;36.36;101064.56;4957106;28;45735;-66
2023/09/10 09:28:58;;;;;;;;;16.75;14.25;;;;;30.23;36.46;101099.91;4954670;28;45454;-65
2023/09/10 09:31:28;;;;;;;;;19.00;16.75;;;;;30.15;36.16;101060.94;4955058;28;45494;-65
2023/09/10 09:33:55;;;;;;;;;19.25;17.75;;;;;30.36;36.16;101085.50;4955410;28;45519;-66
2023/09/10 09:36:32;;;;;;;;;16.00;14.75;;;;;30.53;35.88;101095.88;4971727;28;47036;-66
2023/09/10 09:39:07;;;;;;;;;19.50;17.75;;;;;30.33;36.31;101045.22;4957306;28;45467;-66
2023/09/10 09:41:35;;;;;;;;;15.75;15.75;;;;;30.73;35.71;101090.78;4955446;28;45591;-65
2023/09/10 09:44:02;;;;;;;;;16.25;15.25;;;;;30.76;35.47;101091.41;4963658;28;45450;-65
2023/09/10 09:46:32;;;;;;;;;17.50;16.75;;;;;30.67;35.52;101059.69;4956685;28;45536;-64
2023/09/10 09:48:58;;;;;;;;;17.75;15.75;;;;;30.79;35.42;101080.34;4954817;28;45393;-66
2023/09/10 09:51:25;;;;;;;;;18.00;17.00;;;;;30.64;36.07;101044.56;4955149;28;45490;-65
2023/09/10 09:53:51;;;;;;;;;18.75;17.25;;;;;30.93;35.40;101081.16;4954521;28;45365;-65
2023/09/10 09:56:21;;;;;;;;;18.00;16.25;;;;;30.76;35.77;101040.03;4954587;28;45488;-63
2023/09/10 09:58:47;;;;;;;;;20.00;16.25;;;;;30.70;35.13;101002.66;4955699;28;45447;-65
2023/09/10 10:01:12;;;;;;;;;16.00;15.00;;;;;30.98;34.73;101043.78;4955165;28;45587;-66
2023/09/10 10:03:39;;;;;;;;;17.75;17.75;;;;;31.27;34.93;101079.34;4955006;28;45418;-66
2023/09/10 10:06:06;;;;;;;;;17.00;15.00;;;;;31.20;34.88;101049.19;4958446;28;45666;-67
2023/09/10 10:08:32;;;;;;;;;21.50;18.00;;;;;31.18;35.32;101042.19;4964909;28;45504;-65
2023/09/10 10:10:59;;;;;;;;;20.50;17.25;;;;;31.33;34.88;101056.34;4955572;28;45559;-65
2023/09/10 10:13:26;;;;;;;;;20.00;16.75;;;;;31.38;35.00;101067.66;4957861;28;45545;-65
2023/09/10 10:15:53;;;;;;;;;18.50;17.50;;;;;31.60;34.96;101064.09;4957983;28;45540;-65
2023/09/10 10:18:23;;;;;;;;;17.60;16.40;;;;;31.70;35.28;101054.22;4957011;28;45388;-64
2023/09/10 10:20:50;;;;;;;;;16.00;16.00;;;;;31.95;35.19;101063.03;4955649;28;45398;-65
2023/09/10 10:23:20;;;;;;;;;18.00;15.75;;;;;32.03;34.94;101053.31;4955992;28;45479;-63
2023/09/10 10:25:52;;;;;;;;;13.00;10.75;;;;;31.96;34.75;101026.88;4953865;28;45498;-67
2023/09/10 10:28:19;;;;;;;;;20.80;17.40;;;;;32.13;34.23;101058.84;4955864;28;45416;-66
2023/09/10 10:31:18;;;;;;;;;19.00;17.75;;;;;32.15;34.16;101056.84;4969431;28;45481;-67
2023/09/10 10:34:02;;;;;;;;;16.75;14.75;;;;;32.21;34.52;101023.81;4996924;28;45654;-66
2023/09/10 10:36:34;;;;;;;;;17.00;13.75;;;;;32.43;34.25;101025.53;4968191;28;47115;-71
2023/09/10 10:39:08;;;;;;;;;20.20;17.40;;;;;32.61;33.42;101050.25;4970137;28;45464;-71
2023/09/10 10:41:40;;;;;;;;;21.00;18.25;;;;;32.68;33.46;101046.00;4970342;28;45505;-70
2023/09/10 10:44:39;;;;;;;;;15.25;14.25;;;;;32.85;33.22;101051.81;4970961;28;45441;-67
2023/09/10 10:47:18;;;;;;;;;18.00;17.00;;;;;32.78;33.18;101048.78;4999056;28;45547;-70
2023/09/10 10:49:52;;;;;;;;;13.60;13.00;;;;;32.82;33.23;101043.94;4973100;28;45413;-69
2023/09/10 10:52:24;;;;;;;;;16.20;14.40;;;;;32.94;33.57;101035.59;4968888;28;45212;-68
2023/09/10 10:54:53;;;;;;;;;15.75;15.75;;;;;33.03;32.89;101038.47;4972227;28;45406;-71
2023/09/10 10:57:31;;;;;;;;;18.00;16.00;;;;;33.16;32.85;101034.59;4966166;28;47771;-73
2023/09/10 10:59:57;;;;;;;;;18.00;14.40;;;;;33.01;32.43;100987.09;4973809;28;45534;-70
2023/09/10 11:02:24;;;;;;;;;17.80;17.20;;;;;33.20;32.11;101002.63;4971017;28;45430;-69
2023/09/10 11:05:01;;;;;;;;;19.00;18.00;;;;;33.41;32.27;101031.53;4973227;28;45362;-69
2023/09/10 11:07:29;;;;;;;;;16.50;16.50;;;;;33.37;32.36;101031.81;4958313;28;45651;-69
2023/09/10 11:10:17;;;;;;;;;17.80;16.20;;;;;33.43;32.63;101022.25;4958876;28;45476;-69
2023/09/10 11:13:09;;;;;;;;;19.40;18.60;;;;;33.62;32.22;101017.91;4958741;28;45521;-71
2023/09/10 11:16:04;;;;;;;;;18.50;18.50;;;;;33.64;31.37;101008.59;4958360;28;45422;-72
2023/09/10 11:18:35;;;;;;;;;15.00;15.00;;;;;33.92;31.66;101019.66;4962948;28;47484;-70
2023/09/10 11:21:14;;;;;;;;;19.40;17.00;;;;;34.14;31.29;100999.53;4959290;28;45365;-70